Time;durP1;ratioP1;P1;durP2;ratioP2;P2;SDS_P1;SDS_P2;PMS_P1;PMS_P2;Temp;Humidity;BMP_temperature;BMP_pressure;BME280_temperature;BME280_humidity;BME280_pressure;Samples;Min_cycle;Max_cycle;Signal;HPM_P1;HPM_P2
2023/07/25 00:01:22;;;;;;;17.10;10.20;;;;;;;23.48;64.06;65466.75;5030837;28;20224;-53
2023/07/25 00:03:48;;;;;;;16.63;9.93;;;;;;;23.58;63.26;65477.28;5031666;28;20688;-55
2023/07/25 00:06:13;;;;;;;15.52;9.80;;;;;;;23.60;63.69;65477.50;5030066;28;20308;-51
2023/07/25 00:08:40;;;;;;;17.85;9.75;;;;;;;23.72;63.34;65492.81;5031800;28;20217;-54
2023/07/25 00:11:11;;;;;;;13.98;9.25;;;;;;;23.83;63.21;65505.00;5033585;28;20260;-50
2023/07/25 00:13:37;;;;;;;15.35;9.25;;;;;;;23.76;63.39;65494.66;5031203;28;20256;-51
2023/07/25 00:16:03;;;;;;;14.07;10.15;;;;;;;23.76;63.89;65497.22;5030438;28;20210;-52
2023/07/25 00:18:28;;;;;;;19.77;9.63;;;;;;;23.60;64.02;65480.06;5047759;28;20229;-54
2023/07/25 00:20:55;;;;;;;16.02;9.70;;;;;;;23.41;64.59;65455.88;5031011;28;20305;-50
2023/07/25 00:23:20;;;;;;;16.67;9.93;;;;;;;23.45;64.57;65460.31;5033088;28;20648;-51
2023/07/25 00:25:46;;;;;;;17.42;9.48;;;;;;;23.28;64.07;65447.16;5031794;28;20205;-53
2023/07/25 00:28:12;;;;;;;15.30;8.88;;;;;;;23.15;64.45;65430.72;5032425;28;20667;-54
2023/07/25 00:30:39;;;;;;;17.70;9.93;;;;;;;23.13;64.45;65428.50;5035732;28;20218;-55
2023/07/25 00:33:08;;;;;;;15.25;8.98;;;;;;;23.03;64.55;65414.31;5049027;28;20205;-54
2023/07/25 00:35:44;;;;;;;15.30;8.98;;;;;;;22.95;64.75;65410.59;5048281;28;20218;-52
2023/07/25 00:38:10;;;;;;;18.27;8.98;;;;;;;23.05;64.77;65417.09;5046641;28;20206;-53
2023/07/25 00:40:39;;;;;;;17.13;9.55;;;;;;;23.03;63.76;65417.44;5048439;28;20206;-51
2023/07/25 00:43:05;;;;;;;15.90;8.65;;;;;;;23.12;63.03;65430.00;5032332;28;20244;-51
2023/07/25 00:45:30;;;;;;;22.73;10.07;;;;;;;23.08;63.00;65420.41;5033287;28;20525;-51
2023/07/25 00:47:56;;;;;;;15.82;8.48;;;;;;;22.96;62.80;65409.69;5033099;28;20214;-51
2023/07/25 00:50:22;;;;;;;13.02;8.57;;;;;;;22.95;63.29;65406.00;5033012;28;20214;-51
2023/07/25 00:52:48;;;;;;;14.25;8.88;;;;;;;22.90;64.85;65405.63;5033495;28;20692;-51
2023/07/25 00:55:13;;;;;;;16.25;8.18;;;;;;;23.02;63.47;65418.91;5033410;28;20240;-50
2023/07/25 00:57:39;;;;;;;15.50;8.77;;;;;;;23.07;63.00;65424.44;5033087;28;20202;-51
2023/07/25 01:00:05;;;;;;;17.13;8.82;;;;;;;22.85;63.00;65396.94;5033184;28;20225;-51
2023/07/25 01:02:30;;;;;;;17.35;8.65;;;;;;;22.82;63.29;65393.63;5032879;28;20217;-53
2023/07/25 01:04:56;;;;;;;15.63;8.75;;;;;;;22.79;63.83;65393.44;5032826;28;20320;-53
2023/07/25 01:07:23;;;;;;;12.98;8.15;;;;;;;22.75;63.65;65386.44;5032934;28;20210;-55
2023/07/25 01:09:49;;;;;;;15.15;9.32;;;;;;;22.80;65.03;65397.13;5048018;28;20704;-54
2023/07/25 01:12:14;;;;;;;14.63;9.18;;;;;;;22.80;64.67;65391.41;5033061;28;20210;-54
2023/07/25 01:14:41;;;;;;;16.77;9.00;;;;;;;22.79;64.40;65393.44;5032559;28;20590;-53
2023/07/25 01:17:07;;;;;;;14.18;8.07;;;;;;;22.84;64.33;65395.84;5067760;22;20228;-55
2023/07/25 01:19:33;;;;;;;16.00;8.75;;;;;;;22.65;64.80;65377.91;5072412;28;20297;-53
2023/07/25 01:21:59;;;;;;;11.50;8.02;;;;;;;22.61;65.05;65370.94;5060848;28;20213;-54
2023/07/25 01:24:25;;;;;;;13.50;8.82;;;;;;;22.49;65.64;65357.63;5052509;28;20259;-53
2023/07/25 01:26:51;;;;;;;11.70;8.00;;;;;;;22.56;66.01;65365.38;5034601;28;20209;-53
2023/07/25 01:29:16;;;;;;;16.15;9.10;;;;;;;22.44;66.22;65349.53;5050998;28;20224;-53
2023/07/25 01:31:42;;;;;;;15.90;9.27;;;;;;;22.37;66.67;65342.31;5052779;28;20217;-53
2023/07/25 01:34:07;;;;;;;17.67;8.38;;;;;;;22.51;66.82;65362.97;5052431;28;20236;-57
2023/07/25 01:36:33;;;;;;;14.35;8.75;;;;;;;22.51;66.87;65357.25;5052743;28;20684;-56
2023/07/25 01:38:58;;;;;;;14.63;8.90;;;;;;;22.33;67.38;65342.47;5052260;28;20224;-53
2023/07/25 01:41:23;;;;;;;16.17;8.73;;;;;;;22.28;67.94;65336.94;5052449;28;20794;-56
2023/07/25 01:43:49;;;;;;;15.30;9.85;;;;;;;22.08;68.51;65312.25;5052377;28;20584;-57
2023/07/25 01:46:16;;;;;;;14.88;8.98;;;;;;;22.07;69.33;65311.13;5034416;28;20217;-54
2023/07/25 01:48:42;;;;;;;13.88;9.07;;;;;;;22.07;69.37;65311.69;5052121;28;20208;-53
2023/07/25 01:51:10;;;;;;;12.98;9.00;;;;;;;22.10;69.66;65317.03;5052335;28;20611;-53
2023/07/25 01:53:36;;;;;;;14.93;9.52;;;;;;;22.18;69.29;65323.84;5052267;28;20232;-53
2023/07/25 01:56:02;;;;;;;16.27;9.02;;;;;;;22.25;70.16;65331.59;5052223;28;20684;-52
2023/07/25 01:58:28;;;;;;;15.43;9.10;;;;;;;22.24;70.70;65329.94;5052688;28;20197;-54
2023/07/25 02:01:00;;;;;;;16.88;9.18;;;;;;;22.31;69.22;65338.25;5052311;28;20239;-53
2023/07/25 02:03:26;;;;;;;15.48;9.63;;;;;;;22.23;70.40;65328.84;5051831;28;20198;-54
2023/07/25 02:05:52;;;;;;;17.55;9.35;;;;;;;22.37;69.01;65342.31;5052243;28;20220;-53
2023/07/25 02:08:17;;;;;;;15.93;9.00;;;;;;;22.29;70.19;65338.03;5052195;28;20687;-56
2023/07/25 02:10:43;;;;;;;16.30;9.82;;;;;;;22.29;71.11;65332.91;5051782;28;20351;-59
2023/07/25 02:13:08;;;;;;;14.02;9.18;;;;;;;22.25;71.30;65331.06;5051956;28;20667;-54
2023/07/25 02:15:35;;;;;;;16.60;8.85;;;;;;;22.23;70.94;65326.28;5051883;28;20206;-55
2023/07/25 02:18:01;;;;;;;13.75;9.32;;;;;;;22.35;71.00;65342.13;5051769;28;20303;-57
2023/07/25 02:20:29;;;;;;;16.95;10.35;;;;;;;22.43;70.71;65350.97;5051695;28;20247;-55
2023/07/25 02:22:55;;;;;;;12.75;9.27;;;;;;;22.28;71.33;65334.91;5051560;28;20219;-54
2023/07/25 02:25:20;;;;;;;15.20;8.88;;;;;;;22.25;72.03;65331.06;5051564;28;20193;-57
2023/07/25 02:27:46;;;;;;;15.32;8.80;;;;;;;22.27;71.90;65335.84;5051832;28;20205;-57
2023/07/25 02:30:11;;;;;;;15.07;9.68;;;;;;;22.11;72.39;65318.13;5051418;28;20262;-55
2023/07/25 02:32:36;;;;;;;14.65;9.20;;;;;;;22.06;73.40;65310.56;5051440;28;20206;-56
2023/07/25 02:35:02;;;;;;;16.70;9.20;;;;;;;21.96;73.61;65298.97;5051414;28;20660;-53
2023/07/25 02:37:28;;;;;;;15.57;10.25;;;;;;;21.90;73.43;65295.44;5033938;28;20221;-55
2023/07/25 02:39:53;;;;;;;18.52;10.55;;;;;;;21.80;74.22;65283.78;5051413;28;20637;-54
2023/07/25 02:42:19;;;;;;;16.42;9.75;;;;;;;21.67;74.35;65269.97;5051298;28;20213;-53
2023/07/25 02:44:44;;;;;;;15.00;9.55;;;;;;;21.66;74.70;65266.84;5051480;28;20202;-53
2023/07/25 02:47:10;;;;;;;17.45;9.15;;;;;;;21.48;75.64;65246.94;5051820;28;20281;-53
2023/07/25 02:49:35;;;;;;;15.82;9.85;;;;;;;21.34;76.62;65228.34;5051135;28;20637;-55
2023/07/25 02:52:01;;;;;;;15.50;9.52;;;;;;;21.39;77.14;65239.00;5033070;28;20264;-57
2023/07/25 02:54:26;;;;;;;15.23;10.07;;;;;;;21.38;77.03;65238.44;5032454;28;20679;-53
2023/07/25 02:56:51;;;;;;;18.08;9.30;;;;;;;21.29;77.67;65225.91;5050378;28;20236;-55
2023/07/25 02:59:19;;;;;;;19.23;9.88;;;;;;;21.14;78.18;65211.91;5050871;28;20208;-53
2023/07/25 03:01:44;;;;;;;17.42;10.00;;;;;;;21.16;78.63;65214.13;5049892;28;20270;-53
2023/07/25 03:04:10;;;;;;;14.25;9.88;;;;;;;21.35;77.54;65235.13;5051564;28;20623;-53
2023/07/25 03:06:35;;;;;;;12.23;8.70;;;;;;;21.36;77.33;65238.78;5051332;28;20216;-53
2023/07/25 03:09:01;;;;;;;17.05;9.25;;;;;;;21.43;77.64;65240.84;5051029;28;20209;-53
2023/07/25 03:11:26;;;;;;;16.83;9.68;;;;;;;21.42;77.53;65237.75;5051067;28;20578;-53
2023/07/25 03:13:51;;;;;;;16.00;9.40;;;;;;;21.63;76.20;65266.09;5051019;28;20282;-53
2023/07/25 03:16:17;;;;;;;18.33;9.38;;;;;;;21.48;76.60;65246.94;5051166;28;20232;-53
2023/07/25 03:18:43;;;;;;;13.90;9.07;;;;;;;21.63;76.15;65266.09;5051000;28;20304;-53
2023/07/25 03:21:08;;;;;;;14.15;8.65;;;;;;;21.58;76.43;65255.44;5050791;28;20300;-54
2023/07/25 03:23:34;;;;;;;16.38;9.45;;;;;;;21.46;76.72;65247.28;5050897;28;20280;-53
2023/07/25 03:25:59;;;;;;;15.95;9.05;;;;;;;21.43;77.27;65241.41;5050894;28;20802;-55
2023/07/25 03:28:25;;;;;;;15.15;9.43;;;;;;;21.37;77.72;65236.78;5032896;28;20598;-54
2023/07/25 03:30:50;;;;;;;14.80;9.80;;;;;;;21.24;77.50;65222.97;5050512;28;20304;-54
2023/07/25 03:33:15;;;;;;;20.25;9.77;;;;;;;21.45;76.56;65246.16;5050793;28;20742;-53
2023/07/25 03:35:41;;;;;;;16.08;9.63;;;;;;;21.58;75.13;65258.00;5050451;28;20687;-54
2023/07/25 03:38:07;;;;;;;16.52;9.70;;;;;;;21.77;74.80;65277.91;5051035;28;20309;-53
2023/07/25 03:40:32;;;;;;;16.73;9.20;;;;;;;21.83;74.21;65287.13;5050546;28;20728;-54
2023/07/25 03:42:57;;;;;;;19.27;9.63;;;;;;;21.90;74.08;65292.31;5050326;28;20218;-54
2023/07/25 03:45:23;;;;;;;14.00;9.15;;;;;;;21.75;76.18;65276.25;5050840;28;20211;-52
2023/07/25 03:47:48;;;;;;;14.00;8.93;;;;;;;21.87;75.24;65289.00;5050344;28;20224;-55
2023/07/25 03:50:14;;;;;;;14.90;9.35;;;;;;;21.82;75.28;65281.44;5050282;28;20221;-54
2023/07/25 03:52:40;;;;;;;80.80;52.03;;;;;;;21.70;77.29;65273.84;5032624;28;20236;-53
2023/07/25 03:55:06;;;;;;;20.00;12.30;;;;;;;21.68;77.91;65269.06;5049187;28;20208;-52
2023/07/25 03:57:31;;;;;;;13.70;9.57;;;;;;;21.50;77.41;65251.16;5050308;28;20675;-53
2023/07/25 03:59:57;;;;;;;14.60;9.40;;;;;;;21.51;75.92;65250.25;5050082;28;20555;-54
2023/07/25 04:02:22;;;;;;;18.50;12.60;;;;;;;21.57;75.91;65256.34;5049233;28;20303;-53
2023/07/25 04:04:47;;;;;;;16.13;11.32;;;;;;;21.84;75.58;65285.66;5050876;28;20572;-53
2023/07/25 04:07:13;;;;;;;13.07;8.30;;;;;;;21.96;71.09;65298.97;5049975;28;20683;-54
2023/07/25 04:09:38;;;;;;;15.25;10.65;;;;;;;22.11;72.26;65318.69;5050030;28;20193;-53
2023/07/25 04:12:04;;;;;;;13.20;9.23;;;;;;;22.23;71.96;65331.41;5050427;28;20221;-52
2023/07/25 04:14:30;;;;;;;15.88;10.15;;;;;;;22.15;72.78;65320.53;5050146;28;20202;-53
2023/07/25 04:16:55;;;;;;;18.50;9.05;;;;;;;21.95;73.57;65300.97;5050207;28;20297;-53
2023/07/25 04:19:21;;;;;;;13.73;8.55;;;;;;;21.90;74.84;65289.75;5032205;28;20213;-54
2023/07/25 04:21:46;;;;;;;12.98;8.65;;;;;;;21.95;73.36;65300.41;5050141;28;20643;-52
2023/07/25 04:24:11;;;;;;;23.33;10.32;;;;;;;22.04;74.55;65307.81;5050375;28;20628;-53
2023/07/25 04:26:37;;;;;;;16.77;10.02;;;;;;;22.09;75.23;65311.34;5049794;28;20300;-53
2023/07/25 04:29:03;;;;;;;16.67;8.88;;;;;;;22.30;74.87;65334.56;5049790;28;20590;-53
2023/07/25 04:31:29;;;;;;;13.40;9.05;;;;;;;22.04;76.24;65310.94;5050122;28;20245;-54
2023/07/25 04:33:54;;;;;;;16.02;9.38;;;;;;;21.91;76.79;65291.41;5050478;28;20605;-54
2023/07/25 04:36:20;;;;;;;15.85;9.43;;;;;;;21.71;78.63;65269.81;5050107;28;20687;-53
2023/07/25 04:38:45;;;;;;;18.73;10.25;;;;;;;21.87;78.06;65287.00;5049680;28;20213;-53
2023/07/25 04:41:10;;;;;;;14.60;9.38;;;;;;;21.96;78.39;65301.53;5049462;28;20708;-53
2023/07/25 04:43:36;;;;;;;17.40;9.82;;;;;;;21.68;80.25;65271.06;5049922;28;20201;-54
2023/07/25 04:46:02;;;;;;;17.98;10.27;;;;;;;21.98;77.84;65301.19;5049635;28;20239;-53
2023/07/25 04:48:27;;;;;;;29.00;9.32;;;;;;;21.80;80.35;65276.66;5049598;28;20383;-52
2023/07/25 04:50:53;;;;;;;13.90;9.77;;;;;;;21.95;80.02;65300.97;5049852;28;20283;-54
2023/07/25 04:53:18;;;;;;;14.05;9.65;;;;;;;22.12;80.08;65321.81;5050042;28;20205;-53
2023/07/25 04:55:44;;;;;;;16.98;9.73;;;;;;;22.20;76.43;65325.53;5049974;28;20205;-56
2023/07/25 04:58:10;;;;;;;18.60;9.30;;;;;;;22.21;76.43;65326.63;5049631;28;20193;-55
2023/07/25 05:00:36;;;;;;;16.23;9.77;;;;;;;22.04;77.34;65307.81;5049395;28;20597;-53
2023/07/25 05:03:01;;;;;;;18.85;10.30;;;;;;;22.01;77.40;65305.03;5048543;28;20675;-53
2023/07/25 05:05:26;;;;;;;16.25;10.68;;;;;;;22.01;77.41;65305.03;5049799;28;20205;-54
2023/07/25 05:07:52;;;;;;;20.13;10.00;;;;;;;22.00;78.82;65303.41;5049418;28;20206;-54
2023/07/25 05:10:17;;;;;;;16.92;9.38;;;;;;;22.22;78.17;65327.75;5049434;28;20209;-54
2023/07/25 05:12:43;;;;;;;18.75;11.20;;;;;;;22.35;77.86;65342.13;5049695;28;20582;-54
2023/07/25 05:15:09;;;;;;;16.40;10.07;;;;;;;22.45;76.57;65355.75;5052282;28;20201;-54
2023/07/25 05:17:34;;;;;;;26.67;11.00;;;;;;;22.39;76.41;65346.53;5052926;28;20301;-53
2023/07/25 05:20:00;;;;;;;19.85;11.20;;;;;;;22.66;75.55;65376.47;5052937;28;20209;-53
2023/07/25 05:22:25;;;;;;;19.17;10.40;;;;;;;22.56;74.10;65365.38;5053243;28;20625;-53
2023/07/25 05:24:51;;;;;;;20.20;11.13;;;;;;;22.61;74.09;65370.94;5052812;28;20202;-53
2023/07/25 05:27:16;;;;;;;18.67;9.85;;;;;;;22.73;74.96;65383.66;5035054;28;20292;-53
2023/07/25 05:29:42;;;;;;;22.17;11.20;;;;;;;22.96;75.27;65406.56;5052638;28;20339;-53
2023/07/25 05:32:08;;;;;;;19.77;11.25;;;;;;;23.17;73.06;65435.53;5052908;28;20243;-54
2023/07/25 05:34:33;;;;;;;22.00;11.88;;;;;;;23.25;70.78;65444.38;5052487;28;20202;-53
2023/07/25 05:36:58;;;;;;;18.52;11.32;;;;;;;23.29;69.22;65443.13;5052645;28;20209;-54
2023/07/25 05:39:25;;;;;;;19.38;10.98;;;;;;;23.37;69.67;65449.44;5051668;28;20590;-53
2023/07/25 05:41:50;;;;;;;19.63;11.18;;;;;;;23.41;71.23;65456.44;5050578;28;20232;-53
2023/07/25 05:44:15;;;;;;;19.77;11.48;;;;;;;23.44;69.01;65461.78;5052260;28;20672;-53
2023/07/25 05:46:41;;;;;;;21.90;12.15;;;;;;;23.17;70.13;65435.53;5033074;28;20296;-54
2023/07/25 05:49:06;;;;;;;16.10;11.73;;;;;;;23.47;69.86;65463.09;5052410;28;20226;-56
2023/07/25 05:51:31;;;;;;;17.50;11.82;;;;;;;23.47;69.11;65462.53;5052389;28;20668;-53
2023/07/25 05:53:57;;;;;;;23.33;13.80;;;;;;;23.41;67.59;65458.47;5052578;28;20293;-54
2023/07/25 05:56:23;;;;;;;21.55;12.65;;;;;;;23.42;65.91;65456.97;5050794;28;20331;-53
2023/07/25 05:58:48;;;;;;;17.25;10.93;;;;;;;23.58;66.81;65477.28;5052156;28;20205;-53
2023/07/25 06:01:14;;;;;;;18.80;10.88;;;;;;;23.79;65.99;65498.00;5052532;28;20267;-53
2023/07/25 06:03:40;;;;;;;20.35;12.00;;;;;;;24.09;63.58;65533.84;5052690;28;20201;-53
2023/07/25 06:06:05;;;;;;;19.30;12.35;;;;;;;24.22;64.33;65545.13;5052235;28;20220;-53
2023/07/25 06:08:30;;;;;;;25.10;12.68;;;;;;;24.30;63.48;65556.59;5052124;28;20204;-53
2023/07/25 06:10:56;;;;;;;22.30;14.55;;;;;;;24.56;64.89;65583.41;5051985;28;20221;-54
2023/07/25 06:13:22;;;;;;;19.23;13.57;;;;;;;24.51;63.98;65583.00;5050799;28;20188;-54
2023/07/25 06:15:48;;;;;;;21.30;12.68;;;;;;;24.66;62.94;65596.50;5052081;28;20287;-53
2023/07/25 06:18:14;;;;;;;20.02;12.65;;;;;;;24.57;62.13;65589.09;5051875;28;20288;-54
2023/07/25 06:20:39;;;;;;;18.98;11.95;;;;;;;24.47;62.76;65575.41;5051792;28;20209;-53
2023/07/25 06:23:05;;;;;;;16.75;12.68;;;;;;;24.35;62.95;65559.53;5052019;28;20205;-53
2023/07/25 06:25:30;;;;;;;21.35;14.43;;;;;;;24.40;62.46;65568.22;5050637;28;20217;-53
2023/07/25 06:27:56;;;;;;;20.92;12.85;;;;;;;24.45;62.94;65573.75;5051617;28;20205;-52
2023/07/25 06:30:22;;;;;;;16.38;10.85;;;;;;;24.42;61.15;65567.84;5051520;28;20220;-53
2023/07/25 06:32:48;;;;;;;31.30;16.15;;;;;;;24.58;62.78;65585.63;5052197;28;20217;-52
2023/07/25 06:35:13;;;;;;;22.60;14.45;;;;;;;24.65;63.25;65593.38;5051774;28;20737;-53
2023/07/25 06:37:39;;;;;;;21.33;13.88;;;;;;;24.66;63.80;65594.50;5051551;28;20214;-54
2023/07/25 06:40:05;;;;;;;24.73;13.40;;;;;;;24.75;61.91;65606.50;5051332;28;20704;-53
2023/07/25 06:42:31;;;;;;;21.33;13.02;;;;;;;24.64;63.37;65592.28;5051710;28;20213;-53
2023/07/25 06:44:57;;;;;;;18.88;12.65;;;;;;;24.66;63.43;65597.06;5051644;28;20241;-54
2023/07/25 06:47:23;;;;;;;19.17;12.68;;;;;;;24.86;62.72;65616.13;5051732;28;20217;-54
2023/07/25 06:49:49;;;;;;;18.85;12.07;;;;;;;24.99;60.67;65631.09;5051463;28;20554;-53
2023/07/25 06:52:14;;;;;;;20.83;11.98;;;;;;;24.72;62.17;65601.16;5033532;28;20695;-53
2023/07/25 06:54:41;;;;;;;19.45;11.02;;;;;;;24.52;61.13;65578.97;5051504;28;20186;-53
2023/07/25 06:57:07;;;;;;;18.73;11.60;;;;;;;24.62;61.23;65589.50;5051382;28;20209;-53
2023/07/25 06:59:32;;;;;;;20.25;12.70;;;;;;;24.78;61.14;65609.84;5051327;28;20231;-53
2023/07/25 07:01:58;;;;;;;20.33;13.07;;;;;;;24.99;60.11;65627.97;5051509;28;20228;-53
2023/07/25 07:04:23;;;;;;;19.92;12.05;;;;;;;25.07;60.12;65638.88;5051146;28;20201;-53
2023/07/25 07:06:49;;;;;;;25.35;13.45;;;;;;;25.22;60.42;65655.53;5051583;28;20288;-54
2023/07/25 07:09:15;;;;;;;20.92;13.07;;;;;;;25.33;59.21;65667.75;5050858;28;20600;-53
2023/07/25 07:11:40;;;;;;;22.10;14.18;;;;;;;25.66;57.18;65704.38;5051446;28;20214;-59
2023/07/25 07:14:06;;;;;;;20.20;14.07;;;;;;;25.68;58.05;65709.75;5050858;28;20273;-57
2023/07/25 07:16:32;;;;;;;24.27;13.82;;;;;;;25.73;58.76;65712.69;5051331;28;20316;-54
2023/07/25 07:18:58;;;;;;;25.23;15.48;;;;;;;25.69;58.38;65707.72;5050907;28;20695;-53
2023/07/25 07:21:23;;;;;;;27.73;16.00;;;;;;;25.71;57.76;65713.06;5051157;28;20214;-56
2023/07/25 07:23:49;;;;;;;25.17;15.68;;;;;;;25.87;57.46;65727.16;5050715;28;20194;-57
2023/07/25 07:26:15;;;;;;;24.85;15.30;;;;;;;26.04;57.14;65746.56;5050725;28;20260;-53
2023/07/25 07:28:41;;;;;;;24.75;14.48;;;;;;;26.18;55.90;65762.16;5050813;28;20262;-53
2023/07/25 07:31:09;;;;;;;20.17;14.35;;;;;;;26.46;55.25;65793.25;5051027;28;20741;-56
2023/07/25 07:33:35;;;;;;;23.48;13.60;;;;;;;26.62;54.70;65810.47;5051138;28;20308;-62
2023/07/25 07:36:01;;;;;;;22.27;13.90;;;;;;;26.80;54.39;65829.94;5050643;28;20355;-53
2023/07/25 07:38:27;;;;;;;20.45;11.88;;;;;;;26.78;54.78;65828.28;5050603;28;20359;-52
2023/07/25 07:40:53;;;;;;;21.70;11.98;;;;;;;26.73;53.33;65822.72;5050979;28;20214;-53
2023/07/25 07:43:25;;;;;;;23.25;12.73;;;;;;;26.66;52.25;65814.38;5051037;28;20193;-53
2023/07/25 07:45:51;;;;;;;19.17;11.90;;;;;;;26.70;52.04;65819.38;5050818;28;20224;-54
2023/07/25 07:48:17;;;;;;;18.80;11.90;;;;;;;26.75;51.72;65824.38;5050619;28;20670;-52
2023/07/25 07:50:43;;;;;;;18.85;11.25;;;;;;;27.10;51.16;65863.84;5050272;28;20234;-54
2023/07/25 07:53:10;;;;;;;27.67;12.27;;;;;;;27.34;52.04;65887.97;5050911;28;20205;-53
2023/07/25 07:55:35;;;;;;;21.02;10.75;;;;;;;27.25;52.52;65880.50;5050669;28;20201;-53
2023/07/25 07:58:02;;;;;;;21.45;11.10;;;;;;;27.41;52.28;65895.72;5050350;28;20668;-53
2023/07/25 08:00:28;;;;;;;23.40;11.75;;;;;;;27.59;51.16;65917.81;5050498;28;20209;-53
2023/07/25 08:02:53;;;;;;;27.38;11.82;;;;;;;27.59;50.25;65917.22;5050733;28;20613;-56
2023/07/25 08:05:19;;;;;;;23.15;12.25;;;;;;;27.79;48.61;65942.63;5050246;28;20707;-54
2023/07/25 08:07:44;;;;;;;16.77;9.80;;;;;;;27.75;49.48;65933.00;5050270;28;20210;-53
2023/07/25 08:10:10;;;;;;;24.48;11.23;;;;;;;27.63;48.75;65919.66;5050129;28;20241;-53
2023/07/25 08:12:36;;;;;;;20.83;11.32;;;;;;;27.99;48.51;65962.31;5050159;28;20626;-54
2023/07/25 08:15:02;;;;;;;21.10;11.35;;;;;;;28.22;47.18;65987.88;5050225;28;20311;-56
2023/07/25 08:17:29;;;;;;;21.40;11.70;;;;;;;28.65;48.11;66032.63;5048934;28;20305;-57
2023/07/25 08:19:54;;;;;;;20.98;11.68;;;;;;;28.73;48.20;66041.50;5050272;28;20296;-53
2023/07/25 08:22:19;;;;;;;19.15;10.50;;;;;;;28.62;46.56;66028.72;5050523;28;20240;-55
2023/07/25 08:24:45;;;;;;;19.55;10.85;;;;;;;28.47;46.64;66014.59;5050159;28;20620;-57
2023/07/25 08:27:10;;;;;;;18.83;11.10;;;;;;;28.56;45.62;66022.59;5050192;28;20221;-58
2023/07/25 08:29:40;;;;;;;21.98;11.30;;;;;;;28.63;45.73;66032.97;5050360;28;20213;-54
2023/07/25 08:32:07;;;;;;;17.25;11.10;;;;;;;28.87;45.70;66056.53;5050272;28;20205;-54
2023/07/25 08:34:33;;;;;;;18.15;11.00;;;;;;;28.74;45.58;66042.63;5050026;28;20360;-53
2023/07/25 08:36:58;;;;;;;19.67;12.13;;;;;;;29.02;45.63;66078.44;5049704;28;20361;-53
2023/07/25 08:39:24;;;;;;;19.42;11.60;;;;;;;29.38;46.00;66113.34;5049853;28;20658;-53
2023/07/25 08:41:53;;;;;;;28.17;12.82;;;;;;;29.61;45.13;66141.03;5050234;28;20679;-53
2023/07/25 08:44:23;;;;;;;19.85;12.07;;;;;;;29.36;46.15;66113.72;5049998;28;20201;-54
2023/07/25 08:46:52;;;;;;;18.35;11.55;;;;;;;29.73;45.38;66154.41;5049687;28;20205;-53
2023/07/25 08:49:23;;;;;;;16.48;10.65;;;;;;;29.76;44.78;66155.69;5051376;28;20227;-53
2023/07/25 08:51:51;;;;;;;16.55;10.45;;;;;;;29.89;43.65;66169.06;5053619;28;20319;-53
2023/07/25 08:54:31;;;;;;;17.67;10.80;;;;;;;30.08;42.25;66192.84;5053212;28;20247;-54
2023/07/25 08:56:58;;;;;;;19.58;10.18;;;;;;;30.01;42.48;66185.03;5051540;28;20695;-53
2023/07/25 08:59:24;;;;;;;20.80;11.55;;;;;;;29.79;42.77;66159.06;5053642;28;20205;-55
2023/07/25 09:01:51;;;;;;;19.08;11.25;;;;;;;29.66;44.68;66146.56;5053130;28;20212;-53
2023/07/25 09:04:19;;;;;;;19.17;11.48;;;;;;;30.05;45.61;66190.06;5052940;28;20231;-54
2023/07/25 09:06:45;;;;;;;17.02;10.68;;;;;;;30.22;44.96;66205.84;5051754;28;20292;-53
2023/07/25 09:09:11;;;;;;;23.73;12.27;;;;;;;30.48;44.30;66234.84;5053123;28;20245;-56
2023/07/25 09:11:37;;;;;;;16.52;10.98;;;;;;;30.66;45.01;66258.06;5053260;28;20644;-56
2023/07/25 09:14:02;;;;;;;17.17;10.30;;;;;;;31.03;43.94;66296.19;5052809;28;20197;-60
2023/07/25 09:16:27;;;;;;;19.45;11.23;;;;;;;31.22;43.32;66320.00;5053087;28;20217;-55
2023/07/25 09:18:53;;;;;;;18.52;10.60;;;;;;;31.33;42.60;66329.63;5053345;28;20201;-53
2023/07/25 09:21:19;;;;;;;16.25;10.40;;;;;;;31.53;43.17;66353.47;5053057;28;20651;-53
2023/07/25 09:24:10;;;;;;;18.42;10.18;;;;;;;31.85;42.49;66387.13;5052918;28;20577;-53
2023/07/25 09:26:38;;;;;;;16.30;10.60;;;;;;;31.98;42.29;66399.03;5049369;28;20304;-53
2023/07/25 09:29:03;;;;;;;17.05;10.88;;;;;;;32.15;41.22;66420.06;5034510;28;20221;-54
2023/07/25 09:31:29;;;;;;;18.38;10.85;;;;;;;32.20;41.04;66425.66;5053042;28;20276;-53
2023/07/25 09:33:56;;;;;;;18.52;13.20;;;;;;;32.24;41.74;66432.75;5052687;28;20644;-54
2023/07/25 09:36:22;;;;;;;14.65;10.05;;;;;;;32.07;41.81;66411.72;5052673;28;20292;-54
2023/07/25 09:38:54;;;;;;;18.98;10.75;;;;;;;32.39;40.50;66446.31;5052754;28;20251;-54
2023/07/25 09:41:22;;;;;;;13.77;9.88;;;;;;;32.62;39.61;66469.97;5052836;28;20205;-53
2023/07/25 09:43:49;;;;;;;17.65;10.75;;;;;;;32.26;39.47;66434.97;5052356;28;20240;-53
2023/07/25 09:46:14;;;;;;;17.40;10.82;;;;;;;32.69;39.19;66482.44;5052671;28;20248;-54
2023/07/25 09:48:50;;;;;;;18.35;10.77;;;;;;;32.98;38.55;66515.41;5052136;28;20590;-52
2023/07/25 09:51:15;;;;;;;15.95;10.60;;;;;;;33.25;39.71;66541.84;5052813;28;20239;-52
2023/07/25 09:53:55;;;;;;;13.77;9.75;;;;;;;33.52;39.36;66572.59;5052257;28;20205;-54
2023/07/25 09:56:22;;;;;;;15.13;9.95;;;;;;;33.65;37.96;66586.56;5052346;28;20245;-53
2023/07/25 09:58:49;;;;;;;21.10;10.13;;;;;;;33.53;38.08;66573.72;5052393;28;20292;-53
2023/07/25 10:01:15;;;;;;;14.70;9.38;;;;;;;33.92;38.78;66616.72;5032833;28;20703;-54
2023/07/25 10:03:43;;;;;;;18.77;11.18;;;;;;;34.00;37.83;66625.69;5052170;28;20191;-53
2023/07/25 10:06:16;;;;;;;15.93;10.02;;;;;;;34.13;37.33;66639.66;5052311;28;20209;-53
2023/07/25 10:08:45;;;;;;;19.27;10.18;;;;;;;34.02;37.81;66630.53;5050780;28;20564;-52
2023/07/25 10:11:15;;;;;;;19.63;9.60;;;;;;;34.24;35.47;66651.97;5051996;28;20699;-54
2023/07/25 10:13:43;;;;;;;18.80;10.57;;;;;;;34.41;36.45;66671.53;5052096;28;20185;-53
2023/07/25 10:16:14;;;;;;;18.08;10.85;;;;;;;34.73;37.04;66706.22;5033309;28;20224;-53
2023/07/25 10:18:40;;;;;;;17.42;10.07;;;;;;;34.77;34.89;66708.63;5052002;28;20702;-53
2023/07/25 10:21:08;;;;;;;16.00;9.68;;;;;;;34.83;35.10;66715.34;5051729;28;20209;-55
2023/07/25 10:23:34;;;;;;;14.75;9.52;;;;;;;35.03;34.68;66737.75;5051956;28;20212;-53
2023/07/25 10:26:11;;;;;;;15.93;10.05;;;;;;;35.36;35.25;66774.69;5051849;28;20248;-53
2023/07/25 10:28:37;;;;;;;23.40;10.38;;;;;;;35.36;35.60;66774.13;5051882;28;20207;-54
2023/07/25 10:31:06;;;;;;;15.57;10.15;;;;;;;34.96;35.43;66729.91;5052014;28;20228;-53
2023/07/25 10:33:37;;;;;;;15.75;9.50;;;;;;;35.37;34.14;66775.25;5050433;28;20205;-53
2023/07/25 10:36:02;;;;;;;16.77;9.55;;;;;;;35.89;34.89;66832.91;5033849;28;20384;-53
2023/07/25 10:38:32;;;;;;;17.70;9.63;;;;;;;36.03;34.24;66851.78;5051465;28;20640;-53
2023/07/25 10:41:09;;;;;;;18.00;9.90;;;;;;;36.17;33.52;66864.25;5034127;28;20300;-53
2023/07/25 10:43:52;;;;;;;19.88;9.65;;;;;;;36.03;33.37;66849.16;5051493;28;20209;-53
2023/07/25 10:46:17;;;;;;;17.58;10.02;;;;;;;35.87;34.38;66833.28;5051408;28;20220;-52
2023/07/25 10:48:45;;;;;;;17.23;9.75;;;;;;;36.14;34.17;66860.91;5052060;28;20201;-53
2023/07/25 10:51:15;;;;;;;18.63;9.43;;;;;;;35.97;34.31;66847.13;5051542;28;20719;-56
2023/07/25 10:54:01;;;;;;;13.05;9.00;;;;;;;36.48;34.16;66898.44;5051311;28;20205;-53
2023/07/25 10:56:26;;;;;;;19.50;9.55;;;;;;;36.42;32.87;66891.72;5051490;28;20220;-53
2023/07/25 10:59:05;;;;;;;17.63;9.43;;;;;;;36.45;32.75;66895.66;5051976;28;20181;-56
2023/07/25 11:01:47;;;;;;;15.30;8.60;;;;;;;36.76;31.30;66935.06;5051594;28;20294;-53
2023/07/25 11:04:24;;;;;;;17.65;10.48;;;;;;;37.07;33.17;66967.19;5051293;28;20346;-53
2023/07/25 11:06:55;;;;;;;18.20;9.73;;;;;;;37.40;31.31;67001.56;5051260;28;20247;-53
2023/07/25 11:09:21;;;;;;;17.08;9.23;;;;;;;37.51;30.31;67016.53;5051384;28;20742;-53
2023/07/25 11:11:49;;;;;;;18.52;10.27;;;;;;;37.65;31.07;67029.59;5051000;28;20209;-54
2023/07/25 11:14:17;;;;;;;20.50;9.70;;;;;;;37.97;32.46;67064.34;5051003;28;20684;-54
2023/07/25 11:16:44;;;;;;;14.55;9.48;;;;;;;38.25;30.95;67095.78;5049912;28;20213;-54
2023/07/25 11:19:10;;;;;;;18.35;9.93;;;;;;;38.51;30.47;67125.50;5051519;28;20668;-56